createdAt,value
2018-02-01T00:01:36.834Z,91.40
2018-02-01T00:04:03.855Z,90.90
2018-02-01T00:06:30.483Z,91.20
2018-02-01T00:08:57.070Z,91.00
2018-02-01T00:11:23.664Z,90.90
2018-02-01T00:13:50.664Z,91.40
2018-02-01T00:16:17.695Z,91.40
2018-02-01T00:18:44.311Z,90.70
2018-02-01T00:21:11.331Z,91.00
2018-02-01T00:23:38.065Z,91.00
2018-02-01T00:26:04.635Z,90.90
2018-02-01T00:28:31.264Z,90.90
2018-02-01T00:30:57.938Z,91.00
2018-02-01T00:33:24.539Z,90.90
2018-02-01T00:38:51.352Z,90.70
2018-02-01T00:41:18.334Z,91.30
2018-02-01T00:43:44.858Z,91.00
2018-02-01T00:46:11.518Z,90.90
2018-02-01T00:48:38.123Z,91.00
2018-02-01T00:51:04.709Z,91.20
2018-02-01T00:53:31.304Z,91.30
2018-02-01T00:55:57.874Z,91.40
2018-02-01T00:58:24.405Z,90.30
2018-02-01T01:00:51.321Z,91.00
2018-02-01T01:03:17.895Z,91.10
2018-02-01T01:05:44.459Z,90.70
2018-02-01T01:08:11.044Z,90.60
2018-02-01T01:10:37.629Z,91.10
2018-02-01T01:13:04.239Z,91.70
2018-02-01T01:15:31.168Z,91.40
2018-02-01T01:17:57.763Z,91.80
2018-02-01T01:20:24.699Z,90.90
2018-02-01T01:22:51.311Z,91.00
2018-02-01T01:25:17.884Z,91.20
2018-02-01T01:27:44.873Z,91.50
2018-02-01T01:30:11.452Z,91.50
2018-02-01T01:32:38.051Z,90.90
2018-02-01T01:35:04.630Z,91.40
2018-02-01T01:37:38.093Z,91.50
2018-02-01T01:40:04.688Z,91.20
2018-02-01T01:42:31.667Z,91.40
2018-02-01T01:44:58.263Z,91.10
2018-02-01T01:47:27.137Z,91.90
2018-02-01T01:49:53.711Z,91.80
2018-02-01T01:52:20.311Z,92.00
2018-02-01T01:54:46.886Z,91.40
2018-02-01T01:57:13.877Z,91.80
2018-02-01T01:59:40.476Z,92.00
2018-02-01T02:02:07.129Z,91.80
2018-02-01T02:04:33.707Z,91.40
2018-02-01T02:07:00.272Z,91.40
2018-02-01T02:09:30.592Z,91.40
2018-02-01T02:11:57.568Z,91.40
2018-02-01T02:14:24.164Z,91.60
2018-02-01T02:16:51.127Z,92.10
2018-02-01T02:19:17.678Z,91.20
2018-02-01T02:21:44.308Z,91.90
2018-02-01T02:24:10.905Z,91.50
2018-02-01T02:26:37.511Z,91.80
2018-02-01T02:29:04.189Z,91.40
2018-02-01T02:31:30.756Z,91.80
2018-02-01T02:33:57.298Z,91.90
2018-02-01T02:36:24.238Z,91.60
2018-02-01T02:38:50.790Z,91.90
2018-02-01T02:41:17.340Z,91.50
2018-02-01T02:43:43.986Z,91.40
2018-02-01T02:46:10.580Z,91.60
2018-02-01T02:48:37.564Z,91.50
2018-02-01T02:51:04.180Z,91.80
2018-02-01T02:53:30.731Z,91.70
2018-02-01T02:55:57.314Z,91.30
2018-02-01T02:58:24.316Z,91.60
2018-02-01T03:00:50.893Z,92.10
2018-02-01T03:03:17.470Z,91.70
2018-02-01T03:05:44.058Z,91.40
2018-02-01T03:08:10.662Z,92.00
2018-02-01T03:10:37.232Z,91.90
2018-02-01T03:13:03.784Z,91.50
2018-02-01T03:15:30.384Z,91.60
2018-02-01T03:17:56.963Z,91.80
2018-02-01T03:20:24.919Z,92.40
2018-02-01T03:22:51.781Z,92.10
2018-02-01T03:25:18.752Z,92.10
2018-02-01T03:27:45.343Z,91.80
2018-02-01T03:30:11.977Z,91.70
2018-02-01T03:32:38.555Z,92.10
2018-02-01T03:35:05.286Z,91.80
2018-02-01T03:37:31.859Z,91.60
2018-02-01T03:39:58.432Z,91.60
2018-02-01T03:42:25.744Z,91.70
2018-02-01T03:44:52.390Z,91.60
2018-02-01T03:47:18.986Z,91.70
2018-02-01T03:49:46.081Z,91.60
2018-02-01T03:52:12.764Z,91.90
2018-02-01T03:54:39.384Z,91.90
2018-02-01T03:57:06.056Z,92.20
2018-02-01T03:59:32.704Z,92.20
2018-02-01T04:02:05.607Z,91.70
2018-02-01T04:04:38.282Z,91.50
2018-02-01T04:07:04.925Z,91.80
2018-02-01T04:09:36.259Z,92.30
2018-02-01T04:12:02.897Z,92.30
2018-02-01T04:14:29.586Z,92.40
2018-02-01T04:16:56.167Z,91.90
2018-02-01T04:19:22.783Z,91.90
2018-02-01T04:21:49.875Z,91.80
2018-02-01T04:24:16.438Z,92.40
2018-02-01T04:26:43.029Z,92.40
2018-02-01T04:29:09.711Z,92.10
2018-02-01T04:31:36.295Z,91.60
2018-02-01T04:34:02.951Z,91.80
2018-02-01T04:36:29.618Z,92.20
2018-02-01T04:38:56.218Z,91.90
2018-02-01T04:41:22.872Z,92.30
2018-02-01T04:43:49.559Z,92.20
2018-02-01T04:46:20.414Z,91.60
2018-02-01T04:48:47.424Z,91.70
2018-02-01T04:51:14.143Z,91.90
2018-02-01T04:53:40.716Z,92.30
2018-02-01T04:56:07.360Z,92.20
2018-02-01T04:58:34.086Z,92.30
2018-02-01T05:01:00.683Z,92.20
2018-02-01T05:03:27.304Z,92.70
2018-02-01T05:05:54.946Z,92.40
2018-02-01T05:08:26.596Z,92.40
2018-02-01T05:10:53.267Z,92.50
2018-02-01T05:13:20.318Z,92.20
2018-02-01T05:15:46.925Z,92.30
2018-02-01T05:18:13.544Z,92.20
2018-02-01T05:20:40.211Z,92.40
2018-02-01T05:23:07.227Z,92.20
2018-02-01T05:25:33.837Z,92.20
2018-02-01T05:28:00.740Z,92.80
2018-02-01T05:30:27.765Z,92.30
2018-02-01T05:32:54.804Z,92.40
2018-02-01T05:35:21.375Z,91.90
2018-02-01T05:37:48.394Z,92.60
2018-02-01T05:40:14.992Z,92.50
2018-02-01T05:42:59.460Z,92.10
2018-02-01T05:45:26.102Z,92.30
2018-02-01T05:47:52.733Z,92.10
2018-02-01T05:50:19.398Z,92.30
2018-02-01T05:52:46.026Z,92.30
2018-02-01T05:55:13.009Z,92.20
2018-02-01T05:57:40.030Z,92.40
2018-02-01T06:00:06.783Z,92.50
2018-02-01T06:02:33.409Z,92.50
2018-02-01T06:05:00.039Z,92.60
2018-02-01T06:07:26.680Z,92.70
2018-02-01T06:09:53.466Z,92.50
2018-02-01T06:12:20.061Z,92.50
2018-02-01T06:15:07.447Z,92.50
2018-02-01T06:17:40.697Z,92.50
2018-02-01T06:20:07.774Z,92.70
2018-02-01T06:22:34.381Z,92.80
2018-02-01T06:25:01.005Z,92.00
2018-02-01T06:27:28.386Z,92.10
2018-02-01T06:29:55.513Z,92.20
2018-02-01T06:32:22.079Z,92.50
2018-02-01T06:34:49.534Z,92.50
2018-02-01T06:37:16.555Z,92.50
2018-02-01T06:39:50.067Z,92.20
2018-02-01T06:42:20.695Z,92.70
2018-02-01T06:44:48.346Z,92.00
2018-02-01T06:47:19.051Z,92.40
2018-02-01T06:49:48.807Z,92.80
2018-02-01T06:52:16.415Z,93.20
2018-02-01T06:54:43.062Z,92.70
2018-02-01T06:57:14.456Z,92.20
2018-02-01T06:59:41.016Z,92.90
2018-02-01T07:02:07.962Z,93.10
2018-02-01T07:04:34.563Z,92.80
2018-02-01T07:07:01.161Z,93.20
2018-02-01T07:09:27.814Z,92.70
2018-02-01T07:11:54.388Z,93.10
2018-02-01T07:14:21.139Z,92.70
2018-02-01T07:16:48.240Z,92.70
2018-02-01T07:19:14.821Z,93.40
2018-02-01T07:21:41.841Z,93.50
2018-02-01T07:24:08.767Z,93.20
2018-02-01T07:26:35.379Z,93.30
2018-02-01T07:29:01.935Z,93.30
2018-02-01T07:31:28.566Z,93.30
2018-02-01T07:33:55.166Z,93.70
2018-02-01T07:36:24.179Z,93.50
2018-02-01T07:38:51.130Z,93.50
2018-02-01T07:41:22.785Z,93.20
2018-02-01T07:44:04.045Z,93.20
2018-02-01T07:46:31.839Z,93.30
2018-02-01T07:48:58.496Z,92.80
2018-02-01T07:51:25.426Z,92.90
2018-02-01T07:53:52.049Z,93.00
2018-02-01T07:56:18.691Z,92.80
2018-02-01T07:58:45.329Z,93.10
2018-02-01T08:01:12.038Z,93.00
2018-02-01T08:03:43.175Z,93.10
2018-02-01T08:06:09.787Z,93.10
2018-02-01T08:08:36.422Z,92.90
2018-02-01T08:11:03.322Z,92.60
2018-02-01T08:13:29.891Z,93.10
2018-02-01T08:15:56.480Z,93.00
2018-02-01T08:18:23.569Z,93.10
2018-02-01T08:20:50.164Z,93.20
2018-02-01T08:23:16.803Z,92.90
2018-02-01T08:25:44.250Z,93.10
2018-02-01T08:28:11.211Z,93.60
2018-02-01T08:30:38.211Z,93.00
2018-02-01T08:33:04.885Z,92.60
2018-02-01T08:35:31.848Z,93.30
2018-02-01T08:37:58.968Z,93.40
2018-02-01T08:40:25.601Z,93.00
2018-02-01T08:42:52.185Z,92.90
2018-02-01T08:45:18.822Z,93.40
2018-02-01T08:47:45.538Z,92.90
2018-02-01T08:50:12.562Z,92.80
2018-02-01T08:52:39.214Z,92.80
2018-02-01T08:55:05.880Z,93.20
2018-02-01T08:57:32.457Z,92.70
2018-02-01T08:59:59.126Z,93.00
2018-02-01T09:02:25.808Z,93.00
2018-02-01T09:04:52.465Z,93.20
2018-02-01T09:07:19.047Z,93.00
2018-02-01T09:09:46.062Z,92.90
2018-02-01T09:12:12.627Z,93.00
2018-02-01T09:14:39.219Z,93.10
2018-02-01T09:17:05.844Z,93.20
2018-02-01T09:19:32.470Z,92.90
2018-02-01T09:21:59.107Z,93.10
2018-02-01T09:24:25.667Z,92.90
2018-02-01T09:26:52.255Z,92.90
2018-02-01T09:29:19.365Z,92.90
2018-02-01T09:31:45.951Z,93.10
2018-02-01T09:34:12.981Z,93.10
2018-02-01T09:36:39.637Z,93.00
2018-02-01T09:39:06.259Z,93.10
2018-02-01T09:41:32.916Z,93.20
2018-02-01T09:44:00.175Z,93.20
2018-02-01T09:46:29.169Z,93.20
2018-02-01T09:48:56.188Z,93.00
2018-02-01T09:51:22.809Z,93.10
2018-02-01T09:53:49.454Z,92.90
2018-02-01T09:56:16.058Z,92.90
2018-02-01T09:58:42.800Z,92.90
2018-02-01T10:01:09.427Z,93.20
2018-02-01T10:03:36.009Z,92.80
2018-02-01T10:06:03.080Z,92.90
2018-02-01T10:08:30.083Z,92.80
2018-02-01T10:10:56.733Z,92.90
2018-02-01T10:13:23.324Z,92.70
2018-02-01T10:15:49.931Z,93.00
2018-02-01T10:18:16.602Z,92.90
2018-02-01T10:20:43.230Z,92.40
2018-02-01T10:23:10.270Z,92.60
2018-02-01T10:25:37.606Z,92.50
2018-02-01T10:28:04.625Z,92.60
2018-02-01T10:30:31.236Z,92.30
2018-02-01T10:32:57.960Z,92.60
2018-02-01T10:35:24.953Z,92.50
2018-02-01T10:37:51.582Z,92.70
2018-02-01T10:40:18.263Z,92.40
2018-02-01T10:42:45.267Z,92.40
2018-02-01T10:45:12.304Z,92.60
2018-02-01T10:47:40.940Z,92.50
2018-02-01T10:50:07.977Z,92.10
2018-02-01T10:52:34.996Z,92.30
2018-02-01T10:55:01.595Z,92.30
2018-02-01T10:57:28.647Z,92.50
2018-02-01T10:59:55.647Z,92.70
2018-02-01T11:02:22.664Z,92.60
2018-02-01T11:04:49.270Z,92.50
2018-02-01T11:07:16.306Z,92.30
2018-02-01T11:09:43.352Z,92.30
2018-02-01T11:12:10.392Z,92.70
2018-02-01T11:14:37.016Z,92.80
2018-02-01T11:17:03.689Z,92.80
2018-02-01T11:19:30.687Z,92.90
2018-02-01T11:21:57.283Z,92.50
2018-02-01T11:24:23.980Z,92.70
2018-02-01T11:26:50.582Z,92.20
2018-02-01T11:29:18.099Z,92.40
2018-02-01T11:31:45.097Z,92.40
2018-02-01T11:34:11.692Z,92.50
2018-02-01T11:36:38.732Z,92.40
2018-02-01T11:39:05.390Z,92.50
2018-02-01T11:41:45.168Z,92.50
2018-02-01T11:44:12.087Z,92.40
2018-02-01T11:46:38.716Z,92.20
2018-02-01T11:49:05.296Z,92.40
2018-02-01T11:51:32.206Z,92.60
2018-02-01T11:53:58.859Z,92.50
2018-02-01T11:56:25.438Z,92.50
2018-02-01T11:58:55.667Z,92.30
2018-02-01T12:01:22.315Z,92.40
2018-02-01T12:03:49.270Z,92.30
2018-02-01T12:06:15.946Z,92.50
2018-02-01T12:08:42.531Z,92.60
2018-02-01T12:11:09.168Z,92.40
2018-02-01T12:13:35.878Z,92.30
2018-02-01T12:16:02.529Z,92.60
2018-02-01T12:18:30.196Z,92.40
2018-02-01T12:20:56.832Z,92.40
2018-02-01T12:23:23.415Z,92.20
2018-02-01T12:25:50.047Z,92.30
2018-02-01T12:28:16.694Z,92.30
2018-02-01T12:30:47.795Z,92.10
2018-02-01T12:33:14.466Z,92.30
2018-02-01T12:35:41.436Z,92.10
2018-02-01T12:38:08.016Z,92.20
2018-02-01T12:40:34.638Z,92.10
2018-02-01T12:43:01.637Z,92.00
2018-02-01T12:45:28.247Z,92.20
2018-02-01T12:47:55.241Z,92.10
2018-02-01T12:50:21.866Z,92.00
2018-02-01T12:52:52.273Z,91.90
2018-02-01T12:55:19.281Z,91.80
2018-02-01T13:00:41.742Z,91.20
2018-02-01T13:03:08.449Z,91.10
2018-02-01T13:05:35.088Z,91.10
2018-02-01T13:08:01.705Z,91.30
2018-02-01T13:10:28.712Z,91.10
2018-02-01T13:12:55.325Z,90.90
2018-02-01T13:15:21.957Z,90.70
2018-02-01T13:17:56.608Z,91.00
2018-02-01T13:20:23.226Z,91.00
2018-02-01T13:22:49.825Z,91.10
2018-02-01T13:25:16.492Z,91.00
2018-02-01T13:27:43.101Z,90.80
2018-02-01T13:30:10.108Z,91.10
2018-02-01T13:32:36.741Z,90.80
2018-02-01T13:35:03.390Z,90.90
2018-02-01T13:37:30.034Z,91.00
2018-02-01T13:39:56.659Z,91.00
2018-02-01T13:42:23.306Z,90.90
2018-02-01T13:44:49.964Z,90.80
2018-02-01T13:47:17.438Z,91.00
2018-02-01T13:49:44.077Z,91.00
2018-02-01T13:52:10.647Z,91.10
2018-02-01T13:54:37.344Z,91.30
2018-02-01T13:57:04.360Z,91.30
2018-02-01T13:59:30.951Z,91.20
2018-02-01T14:01:58.528Z,91.20
2018-02-01T14:04:25.169Z,91.30
2018-02-01T14:06:51.731Z,91.00
2018-02-01T14:09:18.321Z,91.40
2018-02-01T14:11:45.026Z,91.20
2018-02-01T14:14:11.615Z,91.10
2018-02-01T14:16:38.222Z,91.10
2018-02-01T14:19:04.879Z,91.10
2018-02-01T14:21:31.478Z,90.90
2018-02-01T14:23:58.055Z,91.10
2018-02-01T14:26:24.696Z,91.20
2018-02-01T14:28:51.273Z,90.70
2018-02-01T14:31:17.853Z,90.60
2018-02-01T14:33:44.769Z,89.80
2018-02-01T14:36:11.388Z,89.80
2018-02-01T14:38:38.045Z,89.80
2018-02-01T14:41:05.181Z,89.70
2018-02-01T14:43:31.923Z,89.70
2018-02-01T14:45:58.537Z,89.90
2018-02-01T14:48:25.449Z,90.20
2018-02-01T14:50:55.322Z,90.10
2018-02-01T14:53:21.891Z,90.10
2018-02-01T14:55:49.280Z,90.40
2018-02-01T14:58:15.887Z,90.40
2018-02-01T15:00:42.457Z,90.70
2018-02-01T15:03:09.168Z,90.60
2018-02-01T15:05:35.771Z,90.50
2018-02-01T15:08:02.346Z,90.70
2018-02-01T15:10:29.018Z,90.40
2018-02-01T15:12:55.677Z,90.50
2018-02-01T15:15:22.284Z,90.70
2018-02-01T15:17:48.957Z,90.40
2018-02-01T15:20:15.515Z,90.90
2018-02-01T15:22:42.086Z,90.50
2018-02-01T15:25:08.696Z,90.80
2018-02-01T15:27:35.781Z,91.00
2018-02-01T15:30:02.344Z,90.80
2018-02-01T15:32:28.950Z,90.80
2018-02-01T15:34:55.537Z,90.70
2018-02-01T15:37:22.095Z,90.70
2018-02-01T15:39:49.166Z,90.60
2018-02-01T15:42:15.806Z,90.50
2018-02-01T15:44:42.496Z,90.80
2018-02-01T15:47:09.171Z,90.90
2018-02-01T15:49:35.824Z,90.50
2018-02-01T15:52:02.425Z,90.40
2018-02-01T15:54:30.124Z,90.50
2018-02-01T15:56:56.713Z,90.80
2018-02-01T15:59:23.340Z,90.70
2018-02-01T16:01:50.056Z,91.00
2018-02-01T16:04:16.734Z,90.80
2018-02-01T16:07:04.085Z,90.80
2018-02-01T16:09:30.742Z,90.90
2018-02-01T16:11:57.299Z,91.00
2018-02-01T16:14:26.149Z,91.20
2018-02-01T16:16:52.762Z,90.90
2018-02-01T16:19:19.749Z,90.80
2018-02-01T16:21:46.608Z,90.80
2018-02-01T16:24:13.194Z,90.40
2018-02-01T16:26:39.831Z,90.90
2018-02-01T16:29:06.915Z,90.30
2018-02-01T16:31:33.572Z,90.40
2018-02-01T16:34:00.700Z,90.80
2018-02-01T16:36:27.328Z,90.30
2018-02-01T16:38:53.942Z,90.70
2018-02-01T16:41:20.560Z,90.60
2018-02-01T16:43:47.629Z,91.30
2018-02-01T16:46:14.653Z,90.60
2018-02-01T16:48:41.223Z,90.60
2018-02-01T16:51:08.282Z,90.40
2018-02-01T16:53:34.871Z,90.90
2018-02-01T16:56:01.505Z,90.70
2018-02-01T16:58:28.149Z,90.20
2018-02-01T17:01:02.993Z,90.60
2018-02-01T17:03:32.023Z,91.00
2018-02-01T17:06:12.724Z,90.30
2018-02-01T17:08:39.344Z,91.30
2018-02-01T17:11:14.291Z,91.70
2018-02-01T17:13:40.888Z,90.80
2018-02-01T17:16:07.522Z,90.80
2018-02-01T17:18:34.164Z,90.80
2018-02-01T17:21:01.126Z,90.70
2018-02-01T17:23:28.700Z,91.30
2018-02-01T17:29:12.624Z,91.20
2018-02-01T17:31:40.005Z,91.30
2018-02-01T17:34:10.109Z,91.10
2018-02-01T17:36:37.717Z,90.90
2018-02-01T17:39:06.279Z,91.40
2018-02-01T17:41:32.861Z,91.10
2018-02-01T17:43:59.499Z,91.20
2018-02-01T17:46:30.864Z,90.90
2018-02-01T17:48:57.879Z,90.60
2018-02-01T17:51:24.475Z,90.90
2018-02-01T17:53:51.473Z,91.20
2018-02-01T17:59:13.851Z,91.30
2018-02-01T18:01:42.499Z,90.90
2018-02-01T18:04:09.107Z,90.50
2018-02-01T18:06:35.756Z,90.90
2018-02-01T18:09:02.410Z,90.70
2018-02-01T18:11:29.025Z,90.60
2018-02-01T18:13:55.707Z,90.60
2018-02-01T18:16:22.275Z,90.30
2018-02-01T18:18:49.271Z,91.30
2018-02-01T18:21:15.946Z,90.50
2018-02-01T18:23:49.136Z,90.80
2018-02-01T18:26:15.801Z,91.40
2018-02-01T18:28:42.401Z,91.40
2018-02-01T18:31:12.122Z,91.50
2018-02-01T18:33:38.802Z,91.40
2018-02-01T18:36:05.443Z,91.70
2018-02-01T18:38:32.133Z,91.30
2018-02-01T18:41:01.927Z,90.70
2018-02-01T18:43:28.577Z,91.30
2018-02-01T18:45:55.544Z,91.70
2018-02-01T18:48:22.218Z,91.40
2018-02-01T18:50:49.119Z,92.60
2018-02-01T18:53:16.344Z,91.70
2018-02-01T18:55:43.595Z,91.60
2018-02-01T18:58:10.297Z,91.30
2018-02-01T19:00:37.023Z,91.70
2018-02-01T19:03:10.108Z,92.10
2018-02-01T19:05:37.281Z,92.20
2018-02-01T19:08:04.128Z,92.10
2018-02-01T19:10:31.115Z,91.60
2018-02-01T19:12:57.925Z,91.80
2018-02-01T19:15:26.596Z,91.80
2018-02-01T19:17:53.564Z,91.90
2018-02-01T19:20:20.329Z,91.60
2018-02-01T19:22:47.470Z,91.60
2018-02-01T19:25:14.199Z,91.70
2018-02-01T19:27:41.040Z,91.90
2018-02-01T19:30:07.792Z,92.10
2018-02-01T19:32:34.672Z,92.20
2018-02-01T19:35:01.392Z,92.10
2018-02-01T19:37:28.291Z,92.10
2018-02-01T19:39:55.148Z,92.00
2018-02-01T19:42:21.904Z,92.20
2018-02-01T19:44:48.540Z,92.00
2018-02-01T19:47:15.395Z,91.80
2018-02-01T19:49:41.960Z,92.50
2018-02-01T19:52:08.638Z,92.10
2018-02-01T19:54:43.301Z,92.30
2018-02-01T19:57:09.974Z,92.50
2018-02-01T19:59:36.957Z,92.30
2018-02-01T20:02:05.621Z,92.50
2018-02-01T20:04:32.235Z,92.30
2018-02-01T20:06:59.222Z,92.80
2018-02-01T20:09:25.869Z,92.10
2018-02-01T20:11:52.845Z,92.00
2018-02-01T20:14:19.484Z,92.40
2018-02-01T20:16:46.104Z,92.40
2018-02-01T20:19:12.785Z,92.50
2018-02-01T20:21:39.902Z,92.50
2018-02-01T20:24:06.686Z,92.80
2018-02-01T20:26:33.727Z,92.50
2018-02-01T20:29:00.338Z,92.60
2018-02-01T20:31:27.102Z,92.10
2018-02-01T20:33:54.141Z,92.50
2018-02-01T20:39:38.212Z,92.30
2018-02-01T20:42:05.220Z,92.20
2018-02-01T20:44:31.850Z,92.00
2018-02-01T20:46:58.441Z,92.10
2018-02-01T20:49:25.486Z,92.10
2018-02-01T20:51:52.580Z,92.40
2018-02-01T20:54:19.177Z,92.30
2018-02-01T20:56:45.933Z,92.30
2018-02-01T20:59:12.532Z,92.20
2018-02-01T21:01:39.117Z,92.30
2018-02-01T21:04:05.800Z,92.10
2018-02-01T21:06:32.401Z,92.50
2018-02-01T21:09:06.930Z,92.40
2018-02-01T21:11:53.025Z,92.20
2018-02-01T21:14:19.691Z,92.00
2018-02-01T21:16:46.398Z,92.60
2018-02-01T21:22:05.644Z,92.60
2018-02-01T21:24:34.881Z,92.60
2018-02-01T21:27:01.541Z,92.50
2018-02-01T21:29:28.183Z,92.20
2018-02-01T21:31:54.867Z,92.40
2018-02-01T21:34:21.937Z,92.20
2018-02-01T21:36:48.573Z,92.20
2018-02-01T21:39:18.605Z,92.40
2018-02-01T21:41:45.229Z,92.40
2018-02-01T21:44:11.843Z,92.30
2018-02-01T21:46:38.822Z,92.40
2018-02-01T21:49:05.490Z,92.50
2018-02-01T21:51:32.390Z,92.50
2018-02-01T21:53:59.055Z,92.50
2018-02-01T21:56:25.644Z,92.60
2018-02-01T21:58:52.710Z,92.40
2018-02-01T22:01:19.381Z,92.70
2018-02-01T22:03:45.970Z,92.50
2018-02-01T22:06:13.012Z,92.30
2018-02-01T22:08:40.032Z,92.30
2018-02-01T22:11:06.661Z,92.40
2018-02-01T22:16:29.561Z,92.40
2018-02-01T22:18:56.712Z,92.50
2018-02-01T22:21:25.843Z,92.50
2018-02-01T22:23:52.502Z,92.60
2018-02-01T22:26:27.680Z,92.40
2018-02-01T22:28:54.690Z,92.60
2018-02-01T22:31:41.045Z,92.50
2018-02-01T22:34:07.625Z,92.50
2018-02-01T22:36:34.224Z,92.30
2018-02-01T22:39:00.941Z,92.20
2018-02-01T22:41:27.559Z,92.60
2018-02-01T22:43:54.168Z,92.40
2018-02-01T22:46:20.909Z,92.10
2018-02-01T22:48:53.592Z,91.80
2018-02-01T22:51:20.262Z,92.20
2018-02-01T22:53:47.204Z,92.10
2018-02-01T22:56:13.818Z,92.20
2018-02-01T22:58:40.498Z,92.40
2018-02-01T23:01:07.462Z,92.20
2018-02-01T23:03:34.461Z,92.30
2018-02-01T23:06:01.152Z,92.50
2018-02-01T23:08:27.774Z,92.20
2018-02-01T23:10:54.804Z,92.50
2018-02-01T23:13:21.457Z,92.50
2018-02-01T23:15:48.499Z,92.40
2018-02-01T23:18:15.525Z,92.60
2018-02-01T23:20:46.190Z,92.30
2018-02-01T23:23:13.184Z,92.40
2018-02-01T23:25:39.796Z,92.60
2018-02-01T23:28:06.480Z,92.00
2018-02-01T23:30:38.156Z,92.20
2018-02-01T23:33:04.755Z,92.40
2018-02-01T23:35:31.416Z,92.30
2018-02-01T23:37:58.016Z,92.20
2018-02-01T23:40:24.636Z,92.20
2018-02-01T23:42:51.244Z,92.20
2018-02-01T23:45:17.833Z,92.40
2018-02-01T23:47:44.447Z,92.30
2018-02-01T23:50:11.041Z,92.70
2018-02-01T23:52:37.675Z,92.50
2018-02-01T23:55:04.356Z,92.10
2018-02-01T23:57:30.981Z,92.40
2018-02-01T23:59:57.630Z,92.70
